Главная страница
METAR-TAF:

METAR-TAF

Аэропорты :

Актау, Казахстан

широта: 43-52-12N, долгота: 051-06E, высота над уровнем моря: м

Текущие метеонаблюдения

Эта сводка был подготовлена 36 минут назад, в 16:00 UTC
Ветер 8 Узел от западно-северо-западный, изменяющийся между западный и северно-северо-западный
Температура 28°C
Влажность 74%
Давление 1007 hPa
Видимость 10 км и более
Нет облачности ниже 1500 м, и нет кучево-дождевой облачности

METAR: UATE 231600Z 29004MPS 260V330 CAVOK 28/23 Q1007 R30/0///70 NOSIG RMK QFE754/1005

Время: 21:36 (16:36 UTC)

Прогноз

Эта сводка был подготовлена 5 часа и 32 минут назад, в 11:04 UTC
Прогноз действительный с 23-го 12 UTC до 24-го 12 UTC
Ветер 14 Узел от западно-северо-западный
Видимость 10 км и более

TAF: UATE 231104Z 2312/2412 30007MPS 9999 NSC TX33/2409Z TN22/2402Z

Метеонаблюдения и прогнозы для более 4000 аэропортов (сводки METAR и TAF).

Имеющиеся станции представлены на карте желтыми и красными точками.

Чтобы увидеть название станции, наведите на нее мышь.

Затем щелкните, чтобы увидеть метеонаблюдения и метеопрогнозы.

Управление картой: чтобы увеличить масштаб, щелкните зеленые кнопки с черным крестиком; чтобы уменьшить масштаб, щелкните зеленую кнопку с тире; для просмотра соседних карт щелкайте зеленые стрелки.


METAR-TAF: